Yoder, Kansas
Current Conditions -  °F | °C
As of 6:52 PM on Tuesday 25 Nov 2014 (Local Time) from KHUT Reporting Station
Clear Clear  
Wind Chill: 40°   Ceiling: Unl
Heat Index: 45°   Visibility: 10mi
Dew Point: 27°   Wind: 10mph
Humidity: 49%   Direction: 160°SSE
Pressure: 29.99"   Gusts: NA
Location:  37.94°N, 97.87°W
Report Text: KHUT 260052Z 16009KT 10SM CLR 07/M03 A2999 RMK AO2 SLP159 T00721028
Loading
Personal Weather Stations






























Interactive Weather Map New forecast layout! Learn more

10-Day Weather Forecast

Advertisements
Track Severe Weather on mobile